Sedgwick, Kansas
Current Conditions -  °F | °C
As of 10:15 AM on Monday 22 Dec 2014 (Local Time) from KEWK Reporting Station
Overcast Overcast  
Wind Chill: 39°   Ceiling: 600
Heat Index: 45°   Visibility: 7mi
Dew Point: 41°   Wind: 12mph
Humidity: 87%   Direction: 280°W
Pressure: 29.58"   Gusts: NA
Location:  37.92°N, 97.42°W
Report Text: KEWK 221615Z AUTO 28010KT 7SM BKN006 BKN011 OVC016 07/05 A2958 RMK AO1
Loading
Personal Weather Stations






























Interactive Weather Map New forecast layout! Learn more

10-Day Weather Forecast

Advertisements
Track Severe Weather on mobile